Time;durP1;ratioP1;P1;durP2;ratioP2;P2;SDS_P1;SDS_P2;PMS_P1;PMS_P2;Temp;Humidity;BMP_temperature;BMP_pressure;BME280_temperature;BME280_humidity;BME280_pressure;Samples;Min_cycle;Max_cycle;Signal;HPM_P1;HPM_P2
2023/07/03 00:00:19;;;;;;;19.37;17.50;;;19.20;95.30;;;;;;4861644;29;20479;-81
2023/07/03 00:02:52;;;;;;;20.03;18.23;;;19.10;95.70;;;;;;4862055;29;20444;-82
2023/07/03 00:05:23;;;;;;;19.30;17.57;;;19.10;95.00;;;;;;4862462;29;20466;-84
2023/07/03 00:07:52;;;;;;;19.23;17.23;;;19.10;95.10;;;;;;4854196;29;20522;-83
2023/07/03 00:10:22;;;;;;;21.43;18.30;;;19.10;95.40;;;;;;4860090;29;20498;-82
2023/07/03 00:12:50;;;;;;;21.27;18.70;;;19.10;94.70;;;;;;4860832;29;20460;-82
2023/07/03 00:15:19;;;;;;;25.47;18.67;;;19.10;94.20;;;;;;4858867;29;20483;-83
2023/07/03 00:17:49;;;;;;;19.33;17.57;;;19.20;94.70;;;;;;4860104;29;20515;-84
2023/07/03 00:20:18;;;;;;;19.53;17.80;;;19.10;94.70;;;;;;4857502;29;21204;-83
2023/07/03 00:22:47;;;;;;;20.10;18.20;;;19.10;94.70;;;;;;4861309;29;20460;-81
2023/07/03 00:25:16;;;;;;;19.10;17.20;;;19.10;94.50;;;;;;4864585;29;20459;-82
2023/07/03 00:27:46;;;;;;;21.17;19.13;;;19.00;95.60;;;;;;4864204;29;20507;-84
2023/07/03 00:30:15;;;;;;;19.73;17.70;;;19.00;94.50;;;;;;4860944;29;20484;-84
2023/07/03 00:32:44;;;;;;;20.43;18.23;;;18.90;94.80;;;;;;4860168;29;20468;-84
2023/07/03 00:35:14;;;;;;;19.17;17.27;;;18.90;95.30;;;;;;4860584;29;20449;-84
2023/07/03 00:37:42;;;;;;;18.97;17.17;;;18.90;95.50;;;;;;4861308;29;20487;-84
2023/07/03 00:40:12;;;;;;;19.43;17.23;;;18.90;95.50;;;;;;4861946;29;20503;-85
2023/07/03 00:42:40;;;;;;;18.40;16.60;;;18.90;95.80;;;;;;4860383;29;20741;-85
2023/07/03 00:45:11;;;;;;;19.80;17.97;;;18.90;95.50;;;;;;4864017;29;20468;-86
2023/07/03 00:47:39;;;;;;;19.50;17.60;;;18.90;95.50;;;;;;4864104;29;20493;-85
2023/07/03 00:50:09;;;;;;;18.73;16.67;;;18.90;95.60;;;;;;4864319;29;20550;-84
2023/07/03 00:52:41;;;;;;;19.33;17.27;;;18.90;95.80;;;;;;4865868;29;20471;-81
2023/07/03 00:55:13;;;;;;;20.00;18.00;;;18.90;96.00;;;;;;4856633;29;20449;-84
2023/07/03 00:57:42;;;;;;;18.83;17.13;;;19.00;95.80;;;;;;4860174;29;21092;-83
2023/07/03 01:00:13;;;;;;;19.23;17.40;;;19.00;95.90;;;;;;4861047;29;20487;-84
2023/07/03 01:02:48;;;;;;;17.40;15.97;;;19.00;96.30;;;;;;4862018;29;21041;-83
2023/07/03 01:05:20;;;;;;;20.17;17.50;;;19.00;96.10;;;;;;4861739;29;20470;-81
2023/07/03 01:07:51;;;;;;;18.33;16.67;;;19.00;95.80;;;;;;4857545;29;20482;-84
2023/07/03 01:10:22;;;;;;;22.83;17.17;;;19.10;95.60;;;;;;4860543;29;20816;-83
2023/07/03 01:12:56;;;;;;;18.93;17.13;;;19.00;95.60;;;;;;4859532;29;20974;-83
2023/07/03 01:15:27;;;;;;;18.93;17.33;;;19.10;96.40;;;;;;4858772;29;20476;-80
2023/07/03 01:17:58;;;;;;;19.27;17.43;;;19.00;96.40;;;;;;4859177;29;20931;-83
2023/07/03 01:20:30;;;;;;;19.07;17.10;;;19.00;96.20;;;;;;4862073;29;20679;-83
2023/07/03 01:23:08;;;;;;;18.87;16.97;;;19.00;97.10;;;;;;4859362;29;20466;-80
2023/07/03 01:25:40;;;;;;;20.43;18.37;;;19.00;97.00;;;;;;4864650;29;20451;-84
2023/07/03 01:28:12;;;;;;;18.37;16.60;;;19.00;96.90;;;;;;4865695;29;20521;-81
2023/07/03 01:30:43;;;;;;;19.63;18.00;;;19.00;97.30;;;;;;4858153;29;20696;-84
2023/07/03 01:33:16;;;;;;;18.97;17.27;;;19.00;97.50;;;;;;4862322;29;20546;-81
2023/07/03 01:35:46;;;;;;;19.77;17.93;;;19.00;97.80;;;;;;4863204;29;20560;-83
2023/07/03 01:38:15;;;;;;;19.17;17.27;;;19.10;98.10;;;;;;4858994;29;21023;-80
2023/07/03 01:40:45;;;;;;;21.00;18.90;;;19.10;98.00;;;;;;4858115;29;20492;-80
2023/07/03 01:43:14;;;;;;;18.97;17.17;;;19.10;98.90;;;;;;4862668;29;20874;-83
2023/07/03 01:45:44;;;;;;;19.20;17.23;;;19.10;98.40;;;;;;4861053;29;20564;-79
2023/07/03 01:48:12;;;;;;;19.67;17.83;;;19.10;98.70;;;;;;4860178;29;20529;-82
2023/07/03 01:50:41;;;;;;;18.57;16.60;;;19.10;99.00;;;;;;4859019;29;20551;-81
2023/07/03 01:53:15;;;;;;;21.03;18.80;;;19.20;97.90;;;;;;4857288;29;20469;-82
2023/07/03 01:55:50;;;;;;;19.97;18.00;;;19.20;98.70;;;;;;4861399;29;20544;-84
2023/07/03 01:58:30;;;;;;;18.60;17.10;;;19.20;99.00;;;;;;4861092;29;21017;-83
2023/07/03 02:01:02;;;;;;;20.63;18.67;;;19.20;99.20;;;;;;4855887;29;20813;-84
2023/07/03 02:03:35;;;;;;;22.23;18.00;;;19.20;98.70;;;;;;4862384;29;20880;-84
2023/07/03 02:06:10;;;;;;;19.90;17.80;;;19.30;99.60;;;;;;4860978;29;20555;-83
2023/07/03 02:08:39;;;;;;;18.40;16.73;;;19.30;98.60;;;;;;4859652;29;20472;-84
2023/07/03 02:11:16;;;;;;;20.83;18.63;;;19.30;98.10;;;;;;4860112;29;20459;-81
2023/07/03 02:13:44;;;;;;;19.00;17.10;;;19.30;98.70;;;;;;4876091;29;20854;-82
2023/07/03 02:16:15;;;;;;;20.40;18.50;;;19.30;98.30;;;;;;4864259;29;20466;-84
2023/07/03 02:18:46;;;;;;;19.37;17.67;;;19.30;98.70;;;;;;4857582;29;20487;-85
2023/07/03 02:21:15;;;;;;;19.47;17.93;;;19.30;98.80;;;;;;4861263;29;20495;-84
2023/07/03 02:23:43;;;;;;;18.70;17.13;;;19.30;98.90;;;;;;4859231;29;20448;-79
2023/07/03 02:26:13;;;;;;;21.30;18.37;;;19.30;99.90;;;;;;4857881;29;20475;-83
2023/07/03 02:28:43;;;;;;;19.20;17.37;;;19.30;98.30;;;;;;4863357;29;20508;-85
2023/07/03 02:31:12;;;;;;;19.43;17.43;;;19.20;98.30;;;;;;4861568;29;20472;-84
2023/07/03 02:33:40;;;;;;;19.07;17.13;;;19.30;99.40;;;;;;4861952;29;20493;-83
2023/07/03 02:36:08;;;;;;;20.30;18.53;;;19.20;99.40;;;;;;4861685;29;20459;-85
2023/07/03 02:38:36;;;;;;;18.93;17.37;;;19.20;99.50;;;;;;4865884;29;20520;-84
2023/07/03 02:41:05;;;;;;;21.47;18.57;;;19.20;99.70;;;;;;4864402;29;20595;-82
2023/07/03 02:43:33;;;;;;;19.90;18.27;;;19.20;99.90;;;;;;4864603;29;20919;-83
2023/07/03 02:46:04;;;;;;;19.53;17.83;;;19.20;99.90;;;;;;4863181;29;20555;-84
2023/07/03 02:48:33;;;;;;;23.60;18.73;;;19.20;99.90;;;;;;4870056;29;20495;-81
2023/07/03 02:51:01;;;;;;;20.20;18.50;;;19.20;99.90;;;;;;4861996;29;20580;-81
2023/07/03 02:53:29;;;;;;;21.30;19.23;;;19.20;99.90;;;;;;4867390;29;20603;-82
2023/07/03 02:55:58;;;;;;;20.43;18.60;;;19.20;99.90;;;;;;4866397;29;20468;-82
2023/07/03 02:58:26;;;;;;;20.23;18.20;;;19.10;99.90;;;;;;4865129;29;20583;-79
2023/07/03 03:00:54;;;;;;;20.53;18.60;;;19.10;99.90;;;;;;4864024;29;20484;-81
2023/07/03 03:03:24;;;;;;;20.90;18.83;;;19.10;99.90;;;;;;4861405;29;20461;-82
2023/07/03 03:05:53;;;;;;;20.47;18.27;;;19.10;99.90;;;;;;4861847;29;20460;-81
2023/07/03 03:08:21;;;;;;;19.57;17.87;;;19.10;99.90;;;;;;4863355;29;20493;-83
2023/07/03 03:10:50;;;;;;;20.00;18.40;;;19.00;99.90;;;;;;4865810;29;20464;-82
2023/07/03 03:13:19;;;;;;;20.43;18.60;;;19.10;99.90;;;;;;4863431;29;20528;-83
2023/07/03 03:15:47;;;;;;;20.17;18.47;;;19.10;99.90;;;;;;4859520;29;20459;-81
2023/07/03 03:18:15;;;;;;;19.90;18.17;;;19.10;99.90;;;;;;4862555;29;20473;-84
2023/07/03 03:20:46;;;;;;;20.03;18.10;;;19.10;99.90;;;;;;4861126;29;20488;-84
2023/07/03 03:23:14;;;;;;;19.30;17.50;;;19.10;99.90;;;;;;4865567;29;20493;-80
2023/07/03 03:25:43;;;;;;;21.27;19.03;;;19.10;99.90;;;;;;4865397;29;21004;-84
2023/07/03 03:28:11;;;;;;;20.73;18.80;;;19.10;99.90;;;;;;4862570;29;20731;-85
2023/07/03 03:30:39;;;;;;;20.60;18.50;;;19.10;99.90;;;;;;4861556;29;20995;-84
2023/07/03 03:33:08;;;;;;;20.47;18.67;;;19.10;99.90;;;;;;4861252;29;20467;-81
2023/07/03 03:35:36;;;;;;;20.17;18.77;;;19.10;99.90;;;;;;4860335;29;20452;-81
2023/07/03 03:38:06;;;;;;;20.40;18.50;;;19.00;99.90;;;;;;4865164;29;20477;-83
2023/07/03 03:40:34;;;;;;;21.07;19.07;;;19.00;99.90;;;;;;4861562;29;20475;-82
2023/07/03 03:43:02;;;;;;;21.27;19.37;;;19.00;99.90;;;;;;4865293;29;20547;-84
2023/07/03 03:45:30;;;;;;;20.43;18.53;;;19.00;99.90;;;;;;4863758;29;20892;-83
2023/07/03 03:47:58;;;;;;;20.93;19.07;;;19.00;99.90;;;;;;4862890;29;20499;-84
2023/07/03 03:50:27;;;;;;;21.40;19.50;;;18.90;99.90;;;;;;4860966;29;20532;-84
2023/07/03 03:52:55;;;;;;;20.60;18.60;;;19.00;99.90;;;;;;4865221;29;20547;-82
2023/07/03 03:55:25;;;;;;;21.00;19.10;;;18.90;99.90;;;;;;4860952;29;20464;-83
2023/07/03 03:57:53;;;;;;;19.90;18.03;;;18.90;99.90;;;;;;4864723;29;20572;-81
2023/07/03 04:00:21;;;;;;;19.47;17.97;;;19.00;99.90;;;;;;4856024;29;20472;-83
2023/07/03 04:02:50;;;;;;;19.53;17.87;;;19.00;99.90;;;;;;4859887;29;20492;-84
2023/07/03 04:05:19;;;;;;;18.07;16.60;;;18.90;99.90;;;;;;4856329;29;20983;-84
2023/07/03 04:07:47;;;;;;;19.30;17.30;;;18.90;99.90;;;;;;4864526;29;20475;-83
2023/07/03 04:10:15;;;;;;;18.73;17.10;;;18.90;99.90;;;;;;4861189;29;20467;-86
2023/07/03 04:12:44;;;;;;;19.50;17.67;;;18.90;99.90;;;;;;4861673;29;20464;-83
2023/07/03 04:15:12;;;;;;;19.13;17.40;;;19.00;99.90;;;;;;4859621;29;20452;-82
2023/07/03 04:17:41;;;;;;;19.17;17.50;;;19.00;99.90;;;;;;4855283;29;20514;-86
2023/07/03 04:20:13;;;;;;;18.60;17.30;;;18.90;99.90;;;;;;4859063;29;20472;-87
2023/07/03 04:22:42;;;;;;;19.73;17.90;;;19.00;99.90;;;;;;4865494;29;20551;-86
2023/07/03 04:25:11;;;;;;;19.70;17.80;;;19.00;99.90;;;;;;4861979;29;20528;-85
2023/07/03 04:27:40;;;;;;;18.90;17.30;;;19.00;99.90;;;;;;4864962;29;20562;-83
2023/07/03 04:30:11;;;;;;;19.90;18.07;;;18.90;99.90;;;;;;4859790;29;20487;-82
2023/07/03 04:32:40;;;;;;;19.10;17.20;;;19.00;99.90;;;;;;4861913;29;20468;-83
2023/07/03 04:35:09;;;;;;;19.20;17.63;;;19.00;99.90;;;;;;4852723;29;21046;-80
2023/07/03 04:37:37;;;;;;;19.70;18.13;;;19.00;99.90;;;;;;4853189;29;21089;-78
2023/07/03 04:40:06;;;;;;;18.93;17.13;;;19.10;99.90;;;;;;4861787;29;20467;-80
2023/07/03 04:42:35;;;;;;;19.97;18.40;;;19.20;99.90;;;;;;4859633;29;20479;-83
2023/07/03 04:45:06;;;;;;;18.67;17.43;;;19.10;99.90;;;;;;4860724;29;20959;-83
2023/07/03 04:47:37;;;;;;;18.33;16.83;;;19.00;99.90;;;;;;4858755;29;20574;-83
2023/07/03 04:50:07;;;;;;;20.70;18.90;;;19.00;99.90;;;;;;4857200;29;20459;-84
2023/07/03 04:52:38;;;;;;;19.00;17.03;;;18.90;99.90;;;;;;4862038;29;20214;-84
2023/07/03 04:55:08;;;;;;;17.90;16.50;;;19.00;99.90;;;;;;4862732;29;20536;-84
2023/07/03 04:57:38;;;;;;;19.17;17.47;;;19.10;99.90;;;;;;4864085;29;20549;-84
2023/07/03 05:00:14;;;;;;;18.43;16.73;;;19.10;99.90;;;;;;4860587;29;20475;-81
2023/07/03 05:02:45;;;;;;;19.60;17.80;;;19.10;99.90;;;;;;4854080;29;20575;-83
2023/07/03 05:05:16;;;;;;;19.13;17.53;;;19.10;99.90;;;;;;4856335;29;20547;-83
2023/07/03 05:07:45;;;;;;;19.43;17.80;;;19.10;99.90;;;;;;4863446;29;21048;-83
2023/07/03 05:10:17;;;;;;;19.25;17.58;;;19.00;99.90;;;;;;4865334;29;20471;-81
2023/07/03 05:12:46;;;;;;;19.63;18.03;;;19.00;99.90;;;;;;4849359;29;20218;-80
2023/07/03 05:15:16;;;;;;;19.43;17.80;;;19.10;99.90;;;;;;4848075;29;20475;-84
2023/07/03 05:17:49;;;;;;;19.53;17.90;;;19.10;99.90;;;;;;4858126;29;20484;-83
2023/07/03 05:20:22;;;;;;;20.20;18.30;;;19.10;99.90;;;;;;4859825;29;20468;-82
2023/07/03 05:23:06;;;;;;;18.67;17.30;;;19.20;99.90;;;;;;4871073;29;20594;-80
2023/07/03 05:29:01;;;;;;;18.40;17.07;;;19.30;99.90;;;;;;4866557;29;20491;-81
2023/07/03 05:31:48;;;;;;;18.60;17.20;;;19.20;99.90;;;;;;4863177;29;20945;-83
2023/07/03 05:34:21;;;;;;;17.70;16.40;;;19.20;99.90;;;;;;4871704;29;20478;-83
2023/07/03 05:36:53;;;;;;;20.67;18.90;;;19.20;99.90;;;;;;4867588;29;20544;-81
2023/07/03 05:39:47;;;;;;;17.57;16.27;;;19.30;99.90;;;;;;4869571;29;21132;-83
2023/07/03 05:42:33;;;;;;;18.37;16.77;;;19.30;99.90;;;;;;4868458;29;20877;-81
2023/07/03 05:45:41;;;;;;;19.83;17.80;;;19.30;99.90;;;;;;4868375;29;20475;-83
2023/07/03 05:48:21;;;;;;;19.47;18.07;;;19.30;99.90;;;;;;4880667;23;20498;-84
2023/07/03 05:51:39;;;;;;;18.17;16.77;;;19.30;99.90;;;;;;4879124;29;20492;-83
2023/07/03 05:54:22;;;;;;;18.20;16.80;;;19.30;99.90;;;;;;4876037;29;20460;-85
2023/07/03 05:57:01;;;;;;;17.67;16.30;;;19.40;99.90;;;;;;4887634;29;20566;-83
2023/07/03 06:00:12;;;;;;;18.63;17.03;;;19.40;99.90;;;;;;4857756;29;20833;-82
2023/07/03 06:03:24;;;;;;;18.40;17.00;;;19.40;99.90;;;;;;4861306;29;20500;-82
2023/07/03 06:05:58;;;;;;;18.47;17.27;;;19.40;99.90;;;;;;4874501;29;20465;-84
2023/07/03 06:08:29;;;;;;;18.50;16.90;;;19.50;99.90;;;;;;4858482;29;20566;-85
2023/07/03 06:11:07;;;;;;;19.60;17.97;;;19.50;99.90;;;;;;4856721;29;20506;-84
2023/07/03 06:13:35;;;;;;;18.80;17.33;;;19.50;99.90;;;;;;4863475;29;20456;-84
2023/07/03 06:20:11;;;;;;;18.90;17.40;;;19.50;99.90;;;;;;4839008;29;20600;-84
2023/07/03 06:22:44;;;;;;;19.20;17.80;;;19.70;99.90;;;;;;4824999;29;20489;-84
2023/07/03 06:25:12;;;;;;;18.23;17.00;;;19.70;99.90;;;;;;4822481;29;20465;-82
2023/07/03 06:27:45;;;;;;;18.53;17.00;;;19.70;99.90;;;;;;4822208;29;20493;-84
2023/07/03 06:30:14;;;;;;;17.80;16.53;;;19.80;99.90;;;;;;4820923;29;20466;-83
2023/07/03 06:32:42;;;;;;;18.70;17.10;;;19.80;99.90;;;;;;4827152;29;20470;-80
2023/07/03 06:36:23;;;;;;;;;;;;;;;;;;;;;
2023/07/03 06:38:53;;;;;;;19.47;17.63;;;19.80;99.90;;;;;;4821068;29;20504;-85
2023/07/03 06:41:34;;;;;;;19.00;17.60;;;19.80;99.90;;;;;;4821954;29;20493;-85
2023/07/03 06:44:32;;;;;;;19.40;17.60;;;19.90;99.90;;;;;;4828309;29;20482;-84
2023/07/03 06:49:49;;;;;;;18.17;16.57;;;19.80;99.90;;;;;;4818702;29;20466;-84
2023/07/03 06:52:19;;;;;;;18.90;17.30;;;19.80;99.90;;;;;;4825010;29;20460;-83
2023/07/03 06:54:51;;;;;;;17.97;16.80;;;19.90;99.90;;;;;;4828061;29;21064;-81
2023/07/03 06:57:26;;;;;;;17.37;16.13;;;19.90;99.90;;;;;;4824557;29;20482;-82
2023/07/03 07:00:06;;;;;;;17.90;16.50;;;19.90;99.90;;;;;;4821350;29;20480;-84
2023/07/03 07:02:39;;;;;;;17.33;15.83;;;19.90;99.90;;;;;;4823143;29;20485;-84
2023/07/03 07:05:13;;;;;;;17.53;16.33;;;19.90;99.90;;;;;;4822369;29;20530;-82
2023/07/03 07:07:42;;;;;;;18.57;16.73;;;19.90;99.90;;;;;;4825804;29;20525;-83
2023/07/03 07:10:13;;;;;;;18.10;16.80;;;19.90;99.90;;;;;;4819035;29;20497;-82
2023/07/03 07:12:41;;;;;;;17.70;16.40;;;20.00;99.90;;;;;;4805758;29;20461;-85
2023/07/03 07:15:12;;;;;;;17.77;16.47;;;20.10;99.90;;;;;;4815212;29;20477;-85
2023/07/03 07:17:40;;;;;;;18.00;16.80;;;20.10;99.90;;;;;;4815894;29;21949;-85
2023/07/03 07:20:19;;;;;;;19.37;17.53;;;20.00;99.90;;;;;;4820805;29;20482;-84
2023/07/03 07:22:48;;;;;;;18.83;17.40;;;19.90;99.90;;;;;;4819756;29;21082;-83
2023/07/03 07:25:16;;;;;;;17.50;16.20;;;19.80;99.90;;;;;;4815299;29;20467;-85
2023/07/03 07:27:45;;;;;;;18.33;17.03;;;19.90;99.90;;;;;;4820861;29;20492;-83
2023/07/03 07:30:15;;;;;;;19.10;17.63;;;19.90;99.90;;;;;;4821061;29;20827;-85
2023/07/03 07:32:44;;;;;;;19.43;17.43;;;20.10;99.90;;;;;;4818638;29;20557;-84
2023/07/03 07:35:13;;;;;;;19.10;17.73;;;20.10;99.90;;;;;;4817239;29;20552;-82
2023/07/03 07:37:41;;;;;;;19.43;17.83;;;20.10;99.90;;;;;;4832589;29;20958;-84
2023/07/03 07:40:11;;;;;;;18.60;17.30;;;20.10;99.90;;;;;;4824570;29;20727;-85
2023/07/03 07:42:40;;;;;;;18.13;16.63;;;20.10;99.90;;;;;;4825237;29;20456;-85
2023/07/03 07:45:09;;;;;;;18.10;16.70;;;20.20;99.90;;;;;;4822132;29;20557;-85
2023/07/03 07:47:39;;;;;;;17.97;16.70;;;20.20;99.90;;;;;;4818207;29;20482;-84
2023/07/03 07:50:09;;;;;;;19.10;17.47;;;20.30;99.90;;;;;;4816784;29;21065;-83
2023/07/03 07:52:37;;;;;;;18.80;17.00;;;20.30;99.90;;;;;;4820303;29;20474;-84
2023/07/03 07:55:07;;;;;;;17.93;16.73;;;20.40;99.90;;;;;;4813129;29;20525;-82
2023/07/03 07:57:36;;;;;;;18.50;16.80;;;20.40;99.90;;;;;;4818125;29;20484;-85
2023/07/03 08:00:06;;;;;;;18.03;16.53;;;20.40;99.90;;;;;;4824813;29;20533;-84
2023/07/03 08:02:36;;;;;;;17.93;16.43;;;20.50;99.90;;;;;;4822903;29;20661;-84
2023/07/03 08:05:07;;;;;;;17.43;15.90;;;20.50;99.90;;;;;;4824054;29;20473;-84
2023/07/03 08:07:36;;;;;;;17.27;15.80;;;20.50;99.90;;;;;;4812528;29;20530;-84
2023/07/03 08:10:05;;;;;;;17.00;15.80;;;20.50;99.90;;;;;;4810604;29;20501;-83
2023/07/03 08:12:34;;;;;;;16.90;15.50;;;20.40;99.90;;;;;;4814140;29;20475;-83
2023/07/03 08:15:03;;;;;;;18.20;16.70;;;20.50;99.90;;;;;;4817047;29;20840;-84
2023/07/03 08:17:32;;;;;;;16.70;15.47;;;20.60;99.90;;;;;;4816694;29;20589;-84
2023/07/03 08:20:00;;;;;;;17.90;16.40;;;20.60;99.90;;;;;;4816947;29;20461;-84
2023/07/03 08:22:30;;;;;;;16.30;15.10;;;20.60;99.90;;;;;;4814009;29;20558;-82
2023/07/03 08:24:59;;;;;;;18.40;16.80;;;20.50;99.90;;;;;;4822230;29;21047;-82
2023/07/03 08:27:27;;;;;;;16.87;15.70;;;20.50;99.90;;;;;;4821620;29;20490;-83
2023/07/03 08:29:56;;;;;;;17.77;16.33;;;20.60;99.90;;;;;;4821431;29;20464;-83
2023/07/03 08:32:25;;;;;;;16.83;15.40;;;20.60;99.90;;;;;;4823598;29;20466;-84
2023/07/03 08:34:54;;;;;;;18.17;16.57;;;20.60;99.90;;;;;;4815842;29;20535;-83
2023/07/03 08:37:25;;;;;;;16.60;15.23;;;20.80;99.90;;;;;;4814884;29;20481;-83
2023/07/03 08:39:55;;;;;;;18.23;16.10;;;20.80;99.90;;;;;;4823554;29;20522;-85
2023/07/03 08:42:28;;;;;;;16.90;15.63;;;20.70;99.90;;;;;;4820509;29;20458;-84
2023/07/03 08:44:59;;;;;;;16.83;15.33;;;20.70;99.90;;;;;;4815412;29;20930;-83
2023/07/03 08:47:31;;;;;;;17.30;15.53;;;20.70;99.90;;;;;;4814424;29;20485;-82
2023/07/03 08:50:03;;;;;;;16.30;15.10;;;20.70;99.90;;;;;;4815265;29;20742;-83
2023/07/03 08:52:39;;;;;;;17.93;16.30;;;20.70;99.90;;;;;;4809850;29;20467;-83
2023/07/03 08:55:15;;;;;;;18.17;16.67;;;20.70;99.90;;;;;;4818332;29;20467;-84
2023/07/03 08:57:43;;;;;;;18.07;16.57;;;20.70;99.90;;;;;;4818917;29;20636;-82
2023/07/03 09:00:12;;;;;;;19.27;17.93;;;20.90;99.90;;;;;;4819690;29;20477;-85
2023/07/03 09:02:47;;;;;;;16.97;15.63;;;21.00;99.90;;;;;;4815531;29;20466;-84
2023/07/03 09:05:32;;;;;;;17.27;16.03;;;21.10;99.90;;;;;;4822828;29;20501;-84
2023/07/03 09:08:04;;;;;;;17.07;15.60;;;21.10;99.90;;;;;;4818170;29;20560;-84
2023/07/03 09:10:39;;;;;;;17.53;15.93;;;21.20;99.90;;;;;;4816349;29;20467;-82
2023/07/03 09:13:11;;;;;;;17.50;16.10;;;21.20;99.90;;;;;;4819449;29;20506;-84
2023/07/03 09:15:45;;;;;;;17.70;16.53;;;21.10;99.90;;;;;;4819615;29;20503;-85
2023/07/03 09:18:18;;;;;;;18.67;17.27;;;21.20;99.90;;;;;;4809963;29;20781;-81
2023/07/03 09:20:47;;;;;;;17.73;16.33;;;21.20;99.90;;;;;;4812854;29;20458;-81
2023/07/03 09:23:21;;;;;;;17.87;16.67;;;21.10;99.90;;;;;;4809390;29;20519;-81
2023/07/03 09:25:58;;;;;;;16.23;14.93;;;21.20;99.90;;;;;;4814421;29;20447;-82
2023/07/03 09:28:37;;;;;;;17.57;15.97;;;21.10;99.90;;;;;;4811412;29;21241;-83
2023/07/03 09:31:05;;;;;;;17.80;16.53;;;21.10;99.90;;;;;;4813155;29;20462;-83
2023/07/03 09:33:34;;;;;;;17.40;16.10;;;21.20;99.90;;;;;;4807786;29;20828;-83
2023/07/03 09:36:04;;;;;;;16.67;15.27;;;21.30;99.90;;;;;;4805079;29;20472;-82
2023/07/03 09:38:36;;;;;;;16.30;15.00;;;21.30;99.90;;;;;;4813823;29;20482;-83
2023/07/03 09:41:06;;;;;;;15.97;14.83;;;21.30;99.90;;;;;;4814052;29;20549;-83
2023/07/03 09:43:43;;;;;;;14.90;14.10;;;21.30;99.90;;;;;;4809592;29;20457;-83
2023/07/03 09:46:14;;;;;;;14.73;13.73;;;21.20;99.90;;;;;;4812004;29;21156;-84
2023/07/03 09:48:44;;;;;;;15.37;14.20;;;21.20;99.90;;;;;;4813838;29;20494;-82
2023/07/03 09:51:25;;;;;;;17.03;15.80;;;21.20;99.90;;;;;;4811642;29;20466;-84
2023/07/03 09:53:56;;;;;;;16.03;14.80;;;21.30;99.90;;;;;;4816460;29;20465;-84
2023/07/03 09:56:31;;;;;;;14.90;14.10;;;21.40;99.90;;;;;;4817866;29;20469;-83
2023/07/03 09:59:02;;;;;;;15.00;14.10;;;21.50;99.90;;;;;;4815412;29;20575;-83
2023/07/03 10:01:32;;;;;;;14.60;13.60;;;21.60;99.90;;;;;;4819128;29;20817;-84
2023/07/03 10:04:06;;;;;;;14.47;13.40;;;21.60;99.90;;;;;;4812280;29;20494;-83
2023/07/03 10:06:38;;;;;;;14.80;13.90;;;21.60;99.90;;;;;;4812854;29;20996;-84
2023/07/03 10:09:17;;;;;;;13.50;12.70;;;21.50;99.90;;;;;;4820796;29;20513;-83
2023/07/03 10:11:55;;;;;;;15.47;14.40;;;21.60;99.90;;;;;;4821288;29;20550;-84
2023/07/03 10:14:28;;;;;;;15.60;14.50;;;21.70;99.90;;;;;;4819302;29;20450;-83
2023/07/03 10:16:57;;;;;;;14.20;13.43;;;21.80;99.90;;;;;;4817067;29;20470;-84
2023/07/03 10:19:26;;;;;;;14.13;13.20;;;22.00;99.90;;;;;;4816741;29;20491;-84
2023/07/03 10:21:55;;;;;;;15.20;14.20;;;22.00;99.90;;;;;;4810880;29;20470;-82
2023/07/03 10:24:25;;;;;;;15.63;14.53;;;22.00;99.90;;;;;;4810745;29;20486;-81
2023/07/03 10:27:00;;;;;;;13.40;12.50;;;22.00;99.90;;;;;;4816364;29;20471;-81
2023/07/03 10:29:33;;;;;;;14.30;13.50;;;22.00;99.90;;;;;;4812548;29;20450;-84
2023/07/03 10:32:07;;;;;;;13.80;12.90;;;22.00;99.90;;;;;;4810536;29;20471;-80
2023/07/03 10:34:40;;;;;;;12.87;12.00;;;22.00;99.90;;;;;;4811373;29;20487;-81
2023/07/03 10:37:14;;;;;;;11.77;11.07;;;22.00;99.90;;;;;;4821977;29;20481;-82
2023/07/03 10:39:45;;;;;;;12.53;11.87;;;21.80;95.60;;;;;;4827452;29;21037;-81
2023/07/03 10:42:21;;;;;;;12.13;11.40;;;21.80;99.90;;;;;;4814611;29;20470;-81
2023/07/03 10:44:58;;;;;;;13.10;11.87;;;21.90;98.10;;;;;;4811868;29;20491;-80
2023/07/03 10:47:33;;;;;;;11.63;11.10;;;22.00;98.50;;;;;;4806179;29;20477;-80
2023/07/03 10:50:03;;;;;;;12.07;11.47;;;22.10;98.00;;;;;;4809071;29;20469;-82
2023/07/03 10:52:43;;;;;;;11.73;11.10;;;22.00;97.90;;;;;;4809168;29;20672;-81
2023/07/03 10:55:25;;;;;;;11.30;10.63;;;22.00;96.30;;;;;;4814384;29;20589;-82
2023/07/03 10:58:02;;;;;;;13.13;12.17;;;22.00;97.50;;;;;;4819653;29;21036;-82
2023/07/03 11:00:38;;;;;;;12.43;11.83;;;22.00;97.60;;;;;;4816422;29;20465;-80
2023/07/03 11:03:17;;;;;;;13.03;12.30;;;22.10;98.60;;;;;;4808345;29;20462;-83
2023/07/03 11:05:53;;;;;;;12.43;11.60;;;22.10;98.40;;;;;;4812637;29;21020;-83
2023/07/03 11:08:30;;;;;;;13.00;12.30;;;22.10;99.10;;;;;;4810127;29;20480;-81
2023/07/03 11:11:15;;;;;;;12.60;12.10;;;22.30;99.90;;;;;;4814976;29;20841;-81
2023/07/03 11:13:52;;;;;;;13.30;12.50;;;22.30;99.90;;;;;;4813522;29;20508;-81
2023/07/03 11:16:25;;;;;;;12.93;12.23;;;22.40;99.70;;;;;;4813863;29;20552;-81
2023/07/03 11:19:08;;;;;;;12.70;11.93;;;22.20;99.50;;;;;;4813656;29;20530;-82
2023/07/03 11:21:53;;;;;;;13.30;12.53;;;22.30;99.90;;;;;;4806968;29;20481;-82
2023/07/03 11:24:31;;;;;;;13.47;12.77;;;22.30;99.90;;;;;;4813431;29;20562;-84
2023/07/03 11:27:08;;;;;;;13.37;12.60;;;22.50;99.90;;;;;;4814851;29;20527;-83
2023/07/03 11:29:41;;;;;;;11.90;11.33;;;22.50;99.90;;;;;;4814497;29;20477;-82
2023/07/03 11:32:13;;;;;;;12.70;11.80;;;22.40;99.90;;;;;;4807238;29;20462;-81
2023/07/03 11:34:42;;;;;;;12.77;12.07;;;22.40;99.90;;;;;;4812713;29;20462;-82
2023/07/03 11:37:42;;;;;;;13.13;12.53;;;22.50;99.90;;;;;;4807381;29;20471;-81
2023/07/03 11:40:35;;;;;;;13.73;13.00;;;22.50;99.90;;;;;;4814063;29;20502;-81
2023/07/03 11:43:23;;;;;;;13.40;12.70;;;22.60;99.90;;;;;;4814214;29;20534;-81
2023/07/03 11:46:10;;;;;;;13.50;12.80;;;22.70;99.90;;;;;;4812283;29;20518;-79
2023/07/03 11:48:45;;;;;;;13.67;12.77;;;22.70;99.90;;;;;;4809351;29;20506;-82
2023/07/03 11:51:15;;;;;;;12.33;11.73;;;22.70;99.90;;;;;;4813092;29;20466;-79
2023/07/03 11:53:47;;;;;;;13.10;12.40;;;22.70;99.90;;;;;;4813961;29;20479;-80
2023/07/03 11:56:48;;;;;;;14.73;13.53;;;22.70;99.90;;;;;;4812945;29;20462;-81
2023/07/03 11:59:26;;;;;;;14.50;13.70;;;22.70;99.90;;;;;;4813626;29;20486;-82
2023/07/03 12:02:45;;;;;;;13.87;12.80;;;22.80;99.90;;;;;;4804068;29;20468;-81
2023/07/03 12:05:54;;;;;;;14.00;12.90;;;22.80;99.90;;;;;;4806011;29;20483;-80
2023/07/03 12:09:15;;;;;;;13.17;12.47;;;22.80;99.90;;;;;;4812476;29;20500;-81
2023/07/03 12:12:15;;;;;;;14.20;13.40;;;22.80;99.90;;;;;;4790861;29;20547;-79
2023/07/03 12:14:56;;;;;;;13.30;12.43;;;22.80;99.90;;;;;;4791880;29;20512;-82
2023/07/03 12:17:29;;;;;;;13.70;12.90;;;22.80;99.90;;;;;;4806519;29;20490;-82
2023/07/03 12:20:09;;;;;;;14.30;13.50;;;22.80;99.90;;;;;;4810148;29;20499;-81
2023/07/03 12:22:41;;;;;;;14.43;13.47;;;22.80;99.90;;;;;;4810436;29;20472;-83
2023/07/03 12:25:13;;;;;;;12.80;11.80;;;22.90;99.90;;;;;;4811985;29;21058;-81
2023/07/03 12:28:45;;;;;;;13.97;13.10;;;22.90;99.90;;;;;;5051034;23;21650;-84
2023/07/03 12:31:37;;;;;;;13.23;12.63;;;22.90;99.90;;;;;;4806833;29;20569;-80
2023/07/03 12:34:14;;;;;;;13.87;13.00;;;22.80;99.90;;;;;;4809576;29;20650;-80
2023/07/03 12:36:43;;;;;;;13.53;12.67;;;22.70;99.90;;;;;;4811643;29;20530;-79
2023/07/03 12:39:28;;;;;;;12.67;11.87;;;22.70;99.90;;;;;;4812105;29;20918;-80
2023/07/03 12:42:09;;;;;;;12.73;11.67;;;22.60;99.90;;;;;;4811306;29;20546;-81
2023/07/03 12:44:38;;;;;;;12.87;12.17;;;22.60;99.90;;;;;;4810444;29;20463;-81
2023/07/03 12:47:12;;;;;;;14.50;13.60;;;22.70;99.90;;;;;;4807056;29;20507;-78
2023/07/03 12:49:55;;;;;;;14.73;13.83;;;22.80;99.90;;;;;;4805585;29;21040;-82
2023/07/03 12:52:24;;;;;;;13.40;12.70;;;22.80;99.90;;;;;;4803904;29;20966;-82
2023/07/03 12:54:53;;;;;;;14.73;13.80;;;22.80;99.90;;;;;;4813652;29;20462;-80
2023/07/03 12:57:41;;;;;;;14.07;13.17;;;22.80;99.90;;;;;;4813282;29;20528;-82
2023/07/03 13:00:16;;;;;;;14.33;13.07;;;22.80;99.90;;;;;;4812213;29;20472;-81
2023/07/03 13:02:45;;;;;;;14.50;13.23;;;22.80;99.90;;;;;;4809786;29;20897;-82
2023/07/03 13:05:21;;;;;;;12.50;12.00;;;22.90;99.90;;;;;;4809770;29;20585;-80
2023/07/03 13:07:51;;;;;;;13.07;12.20;;;22.90;99.90;;;;;;4804556;29;20515;-80
2023/07/03 13:10:20;;;;;;;13.17;12.43;;;22.90;99.90;;;;;;4813462;29;20910;-82